Time;durP1;ratioP1;P1;durP2;ratioP2;P2;SDS_P1;SDS_P2;PMS_P1;PMS_P2;Temp;Humidity;BMP_temperature;BMP_pressure;BME280_temperature;BME280_humidity;BME280_pressure;Samples;Min_cycle;Max_cycle;Signal;HPM_P1;HPM_P2
2022/03/20 00:01:08;;;;;;;12.90;6.72;;;5.90;99.90;;;;;;5096159;28;20044;-68
2022/03/20 00:03:33;;;;;;;11.32;6.30;;;5.90;99.90;;;;;;5096387;28;20040;-68
2022/03/20 00:05:59;;;;;;;13.23;7.07;;;5.70;99.90;;;;;;5096009;28;20101;-68
2022/03/20 00:08:25;;;;;;;15.50;6.78;;;5.80;99.90;;;;;;5096378;28;20079;-69
2022/03/20 00:10:53;;;;;;;12.02;6.82;;;5.80;99.90;;;;;;5096084;28;20034;-69
2022/03/20 00:13:21;;;;;;;12.82;6.75;;;5.70;99.90;;;;;;5096026;28;20028;-68
2022/03/20 00:15:52;;;;;;;15.23;6.80;;;5.40;99.90;;;;;;5095886;28;20101;-68
2022/03/20 00:18:26;;;;;;;15.27;7.13;;;5.50;99.90;;;;;;5096203;28;20437;-68
2022/03/20 00:21:00;;;;;;;13.02;6.70;;;5.80;99.90;;;;;;5095984;28;20044;-68
2022/03/20 00:23:26;;;;;;;13.13;7.22;;;5.10;99.90;;;;;;5095871;28;20055;-68
2022/03/20 00:25:54;;;;;;;14.52;7.13;;;5.40;99.90;;;;;;5077322;28;20056;-68
2022/03/20 00:28:23;;;;;;;15.05;7.32;;;5.40;99.90;;;;;;5095592;28;20047;-68
2022/03/20 00:30:49;;;;;;;16.52;7.55;;;5.40;99.90;;;;;;5095838;28;20032;-67
2022/03/20 00:33:15;;;;;;;13.02;7.07;;;4.50;99.90;;;;;;5095789;28;20105;-68
2022/03/20 00:35:41;;;;;;;10.95;7.40;;;5.70;99.90;;;;;;5095781;28;20035;-67
2022/03/20 00:38:07;;;;;;;14.00;7.65;;;5.60;99.90;;;;;;5095406;28;20051;-68
2022/03/20 00:40:34;;;;;;;14.80;8.05;;;5.90;99.90;;;;;;5095464;28;20036;-68
2022/03/20 00:43:00;;;;;;;13.65;7.15;;;;;;;;;;5095371;28;20411;-68
2022/03/20 00:45:28;;;;;;;14.13;7.95;;;5.40;99.90;;;;;;5095543;28;20443;-68
2022/03/20 00:47:54;;;;;;;15.50;8.73;;;5.70;99.90;;;;;;5095562;28;20040;-68
2022/03/20 00:50:21;;;;;;;18.00;8.55;;;5.20;99.90;;;;;;5095293;28;20506;-68
2022/03/20 00:52:47;;;;;;;14.65;8.80;;;5.60;99.90;;;;;;5077535;28;20437;-68
2022/03/20 00:55:13;;;;;;;13.95;8.50;;;5.80;99.90;;;;;;5095108;28;20041;-67
2022/03/20 00:57:38;;;;;;;16.48;8.90;;;5.60;99.90;;;;;;5094976;28;20089;-68
2022/03/20 01:00:05;;;;;;;12.15;8.10;;;5.20;99.90;;;;;;5095332;28;20153;-68
2022/03/20 01:02:39;;;;;;;14.30;9.20;;;6.10;99.90;;;;;;5095336;28;20047;-68
2022/03/20 01:05:05;;;;;;;17.27;9.20;;;5.50;99.90;;;;;;5094751;28;20040;-67
2022/03/20 01:07:31;;;;;;;14.52;9.25;;;4.90;99.90;;;;;;5094187;28;20040;-68
2022/03/20 01:09:56;;;;;;;16.70;9.85;;;5.30;99.90;;;;;;5094752;28;20088;-68
2022/03/20 01:12:22;;;;;;;15.40;9.85;;;6.10;99.90;;;;;;5094827;28;20039;-68
2022/03/20 01:14:48;;;;;;;21.20;10.68;;;5.50;99.90;;;;;;5076926;28;20047;-68
2022/03/20 01:17:14;;;;;;;15.75;9.88;;;;;;;;;;5094933;28;20067;-68
2022/03/20 01:19:39;;;;;;;19.75;10.27;;;5.50;99.90;;;;;;5094794;28;20381;-67
2022/03/20 01:22:05;;;;;;;21.60;10.40;;;5.70;99.90;;;;;;5094745;28;20047;-68
2022/03/20 01:24:30;;;;;;;19.77;11.23;;;5.00;99.90;;;;;;5094224;28;20144;-68
2022/03/20 01:26:57;;;;;;;21.13;11.30;;;5.70;99.90;;;;;;5094558;28;20149;-67
2022/03/20 01:29:22;;;;;;;17.23;10.68;;;5.40;99.90;;;;;;5094703;28;20036;-67
2022/03/20 01:31:49;;;;;;;17.00;10.90;;;5.30;99.90;;;;;;5094343;28;20050;-68
2022/03/20 01:34:15;;;;;;;17.45;10.18;;;;;;;;;;5094504;28;20043;-68
2022/03/20 01:36:42;;;;;;;19.08;11.23;;;5.30;99.90;;;;;;5094338;28;20044;-68
2022/03/20 01:39:08;;;;;;;18.08;10.38;;;4.90;99.90;;;;;;5094253;28;20411;-67
2022/03/20 01:41:33;;;;;;;21.67;10.73;;;5.40;99.90;;;;;;5094189;28;20472;-67
2022/03/20 01:44:01;;;;;;;16.83;10.30;;;5.10;99.90;;;;;;5094482;28;20075;-68
2022/03/20 01:46:27;;;;;;;16.25;10.45;;;;;;;;;;5094424;28;20048;-68
2022/03/20 01:48:53;;;;;;;18.58;10.75;;;5.10;99.90;;;;;;5094194;28;20047;-68
2022/03/20 01:52:10;;;;;;;18.23;10.57;;;4.90;99.90;;;;;;5094006;28;20036;-68
2022/03/20 01:54:11;;;;;;;20.40;10.77;;;4.80;99.90;;;;;;5093949;28;20387;-68
2022/03/20 01:56:41;;;;;;;16.30;10.35;;;4.80;99.90;;;;;;5094115;28;20040;-67
2022/03/20 01:59:07;;;;;;;18.83;11.52;;;4.90;99.90;;;;;;5094062;28;20396;-67
2022/03/20 02:01:33;;;;;;;18.08;10.82;;;;;;;;;;5303795;22;20036;-58
2022/03/20 02:03:58;;;;;;;18.33;10.55;;;5.00;99.90;;;;;;5073901;28;20111;-58
2022/03/20 02:06:26;;;;;;;16.90;10.70;;;4.80;99.90;;;;;;5073633;28;20120;-58
2022/03/20 02:08:54;;;;;;;16.67;10.30;;;4.70;99.90;;;;;;5073844;28;20037;-59
2022/03/20 02:11:22;;;;;;;16.20;10.63;;;4.60;99.90;;;;;;5073850;28;20395;-58
2022/03/20 02:13:48;;;;;;;18.70;10.70;;;;;;;;;;5073660;28;20047;-60
2022/03/20 02:16:14;;;;;;;20.02;10.65;;;4.10;99.90;;;;;;5073659;28;20040;-58
2022/03/20 02:18:39;;;;;;;20.33;10.85;;;4.60;99.90;;;;;;5054949;28;20391;-59
2022/03/20 02:21:05;;;;;;;18.58;10.90;;;4.50;99.90;;;;;;5073863;28;20044;-58
2022/03/20 02:23:34;;;;;;;18.52;10.95;;;4.40;99.90;;;;;;5072372;28;20044;-59
2022/03/20 02:26:01;;;;;;;17.17;10.73;;;4.20;99.90;;;;;;5073694;28;20049;-59
2022/03/20 02:28:26;;;;;;;16.83;11.45;;;4.00;99.90;;;;;;5073872;28;20075;-58
2022/03/20 02:30:52;;;;;;;18.60;10.95;;;4.10;99.90;;;;;;5072499;28;20129;-59
2022/03/20 02:33:22;;;;;;;17.73;11.02;;;;;;;;;;5073355;28;20040;-59
2022/03/20 02:35:49;;;;;;;20.10;11.38;;;4.20;99.90;;;;;;5073540;28;20120;-58
2022/03/20 02:38:18;;;;;;;17.17;11.10;;;;;;;;;;5073473;28;20093;-59
2022/03/20 02:40:45;;;;;;;19.90;11.48;;;4.30;99.90;;;;;;5073507;28;20041;-59
2022/03/20 02:43:11;;;;;;;20.73;11.93;;;4.20;99.90;;;;;;5073392;28;20036;-59
2022/03/20 02:45:38;;;;;;;17.38;11.73;;;3.90;99.90;;;;;;5073298;28;20062;-59
2022/03/20 02:48:04;;;;;;;20.02;12.18;;;;;;;;;;5073914;28;20063;-59
2022/03/20 02:50:32;;;;;;;19.80;12.43;;;4.10;99.90;;;;;;5073507;28;20040;-58
2022/03/20 02:53:02;;;;;;;19.92;11.85;;;4.50;99.90;;;;;;5072094;28;20514;-58
2022/03/20 02:55:37;;;;;;;23.83;13.40;;;4.20;99.90;;;;;;5073360;28;20037;-58
2022/03/20 02:58:05;;;;;;;23.52;12.07;;;4.10;99.90;;;;;;5073209;28;20052;-59
2022/03/20 03:00:33;;;;;;;17.80;11.75;;;4.10;99.90;;;;;;5073119;28;20124;-59
2022/03/20 03:03:00;;;;;;;19.95;12.20;;;4.20;99.90;;;;;;5073161;28;20056;-59
2022/03/20 03:05:27;;;;;;;22.17;12.27;;;4.30;99.90;;;;;;5073058;28;20045;-59
2022/03/20 03:10:57;;;;;;;23.45;12.90;;;3.90;99.90;;;;;;5073266;28;20091;-58
2022/03/20 03:13:34;;;;;;;19.38;13.32;;;4.50;99.90;;;;;;5073103;28;20068;-59
2022/03/20 03:16:02;;;;;;;22.23;13.48;;;3.70;99.90;;;;;;5073335;28;20094;-59
2022/03/20 03:18:28;;;;;;;21.77;13.25;;;;;;;;;;5073151;28;20032;-58
2022/03/20 03:20:53;;;;;;;21.20;13.23;;;3.60;99.90;;;;;;5073008;28;20048;-59
2022/03/20 03:23:20;;;;;;;22.15;13.52;;;3.40;99.90;;;;;;5072898;28;20100;-59
2022/03/20 03:25:46;;;;;;;20.38;12.88;;;4.00;99.90;;;;;;5073201;28;20079;-59
2022/03/20 03:28:12;;;;;;;20.67;13.23;;;3.80;99.90;;;;;;5072921;28;20115;-58
2022/03/20 03:30:45;;;;;;;22.55;12.88;;;4.00;99.90;;;;;;5075478;28;20166;-58
2022/03/20 03:33:12;;;;;;;20.88;13.15;;;3.80;99.90;;;;;;5076909;28;20040;-59
2022/03/20 03:35:42;;;;;;;20.67;13.25;;;3.80;99.90;;;;;;5076786;28;20083;-59
2022/03/20 03:38:11;;;;;;;24.38;13.98;;;3.50;99.90;;;;;;5076672;28;20048;-58
2022/03/20 03:40:38;;;;;;;23.85;14.13;;;3.70;99.90;;;;;;5076852;28;20107;-59
2022/03/20 03:43:04;;;;;;;23.55;14.38;;;3.70;99.90;;;;;;5076732;28;20055;-58
2022/03/20 03:45:30;;;;;;;24.20;13.88;;;3.50;99.90;;;;;;5076606;28;20491;-59
2022/03/20 03:47:56;;;;;;;24.70;14.63;;;4.00;99.90;;;;;;5075497;28;20476;-59
2022/03/20 03:50:22;;;;;;;23.80;14.80;;;3.80;99.90;;;;;;5076320;28;20487;-58
2022/03/20 03:52:48;;;;;;;22.02;14.35;;;3.50;99.90;;;;;;5076684;28;20378;-59
2022/03/20 03:55:15;;;;;;;25.17;14.65;;;3.70;99.90;;;;;;5076471;28;20396;-58
2022/03/20 03:57:46;;;;;;;24.10;15.00;;;3.70;99.90;;;;;;5076467;28;20461;-58
2022/03/20 04:00:12;;;;;;;24.48;15.02;;;3.80;99.90;;;;;;5076262;28;20036;-58
2022/03/20 04:02:38;;;;;;;25.65;15.02;;;3.40;99.90;;;;;;5076122;28;20057;-59
2022/03/20 04:05:05;;;;;;;24.40;15.27;;;3.90;99.90;;;;;;5076018;28;20408;-58
2022/03/20 04:07:30;;;;;;;24.30;15.45;;;3.50;99.90;;;;;;5076237;28;20040;-58
2022/03/20 04:09:56;;;;;;;24.75;15.32;;;3.30;99.90;;;;;;5076246;28;20040;-58
2022/03/20 04:12:22;;;;;;;24.45;15.02;;;3.70;99.90;;;;;;5076197;28;20042;-58
2022/03/20 04:14:48;;;;;;;27.85;16.23;;;2.80;99.90;;;;;;5076103;28;20376;-59
2022/03/20 04:17:14;;;;;;;22.45;14.88;;;3.90;99.90;;;;;;5075949;28;20067;-58
2022/03/20 04:19:41;;;;;;;26.25;16.48;;;3.50;99.90;;;;;;5075869;28;20040;-58
2022/03/20 04:22:07;;;;;;;24.63;16.17;;;3.60;99.90;;;;;;5076117;28;20113;-58
2022/03/20 04:24:33;;;;;;;26.27;16.92;;;2.80;99.90;;;;;;5075927;28;20079;-59
2022/03/20 04:26:59;;;;;;;25.17;17.00;;;3.70;99.90;;;;;;5076042;28;20044;-58
2022/03/20 04:29:27;;;;;;;25.73;16.42;;;3.40;99.90;;;;;;5075962;28;20078;-58
2022/03/20 04:31:54;;;;;;;26.20;16.90;;;3.40;99.90;;;;;;5075773;28;20041;-58
2022/03/20 04:34:21;;;;;;;23.75;16.05;;;3.40;99.90;;;;;;5075727;28;20043;-59
2022/03/20 04:36:48;;;;;;;25.35;16.60;;;3.10;99.90;;;;;;5075600;28;20507;-59
2022/03/20 04:39:14;;;;;;;25.50;16.75;;;;;;;;;;5074379;28;20050;-59
2022/03/20 04:41:39;;;;;;;28.38;17.20;;;3.50;99.90;;;;;;5074541;28;20108;-59
2022/03/20 04:44:07;;;;;;;27.92;16.75;;;3.30;99.90;;;;;;5075468;28;20501;-58
2022/03/20 04:46:33;;;;;;;28.48;16.63;;;;;;;;;;5074134;28;20041;-59
2022/03/20 04:59:56;;;;;;;29.48;17.35;;;3.40;99.90;;;;;;5075335;28;20137;-58
2022/03/20 05:02:23;;;;;;;25.20;17.05;;;;;;;;;;5075015;28;20092;-59
2022/03/20 05:04:49;;;;;;;32.72;17.67;;;3.30;99.90;;;;;;5075021;28;20119;-58
2022/03/20 05:07:15;;;;;;;30.92;17.85;;;3.50;99.90;;;;;;5073781;28;20512;-58
2022/03/20 05:15:10;;;;;;;26.00;17.98;;;3.30;99.90;;;;;;5074935;28;20117;-58
2022/03/20 05:17:36;;;;;;;25.58;17.08;;;3.20;99.90;;;;;;5074839;28;20048;-59
2022/03/20 05:20:04;;;;;;;27.70;18.02;;;3.40;99.90;;;;;;5074632;28;20119;-59
2022/03/20 05:22:32;;;;;;;29.02;17.73;;;3.50;99.90;;;;;;5075048;28;20048;-59
2022/03/20 05:24:58;;;;;;;29.23;18.30;;;4.10;99.90;;;;;;5074542;28;20472;-58
2022/03/20 05:27:23;;;;;;;27.35;18.10;;;3.20;99.90;;;;;;5074737;28;20036;-59
2022/03/20 05:29:49;;;;;;;26.35;17.75;;;3.40;99.90;;;;;;5075080;28;20039;-58
2022/03/20 05:32:15;;;;;;;30.00;18.30;;;4.20;99.90;;;;;;5074577;28;20475;-58
2022/03/20 05:34:41;;;;;;;27.67;18.02;;;3.40;99.90;;;;;;5074510;28;20115;-58
2022/03/20 05:37:08;;;;;;;30.77;18.65;;;3.50;99.90;;;;;;5074534;28;20530;-58
2022/03/20 05:39:35;;;;;;;30.77;18.27;;;;;;;;;;5074253;28;20070;-59
2022/03/20 05:42:00;;;;;;;30.83;18.85;;;3.30;99.90;;;;;;5074272;28;20495;-59
2022/03/20 05:44:26;;;;;;;28.80;18.17;;;3.30;99.90;;;;;;5074159;28;20119;-58
2022/03/20 05:46:54;;;;;;;26.55;18.35;;;2.90;99.90;;;;;;5074344;28;20032;-58
2022/03/20 05:49:21;;;;;;;27.33;18.48;;;3.20;99.90;;;;;;5074072;28;20040;-58
2022/03/20 05:51:48;;;;;;;31.10;18.17;;;3.40;99.90;;;;;;5074022;28;20040;-58
2022/03/20 05:54:15;;;;;;;27.73;18.73;;;3.40;99.90;;;;;;5073999;28;20037;-58
2022/03/20 05:59:26;;;;;;;28.63;18.67;;;3.20;99.90;;;;;;5074025;28;20086;-55
2022/03/20 06:01:51;;;;;;;30.23;18.80;;;3.40;99.90;;;;;;5073602;28;20048;-55
2022/03/20 06:04:18;;;;;;;31.67;18.67;;;4.00;99.90;;;;;;5072835;28;20543;-56
2022/03/20 06:06:44;;;;;;;32.35;18.73;;;3.30;99.90;;;;;;5073890;28;20120;-55
2022/03/20 06:09:10;;;;;;;29.77;18.75;;;3.20;99.90;;;;;;5073981;28;20028;-56
2022/03/20 06:11:36;;;;;;;35.75;18.63;;;3.80;99.90;;;;;;5073799;28;20039;-58
2022/03/20 06:14:06;;;;;;;29.73;19.02;;;4.10;99.90;;;;;;5073736;28;20037;-58
2022/03/20 06:16:32;;;;;;;31.55;18.55;;;3.40;99.90;;;;;;5073885;28;20134;-58
2022/03/20 06:18:58;;;;;;;26.73;18.45;;;4.40;99.90;;;;;;5073772;28;20051;-58
2022/03/20 06:21:25;;;;;;;30.15;19.20;;;3.60;99.90;;;;;;5073701;28;20036;-59
2022/03/20 06:23:51;;;;;;;28.90;18.90;;;3.80;99.90;;;;;;5073830;28;20123;-58
2022/03/20 06:26:17;;;;;;;29.50;18.58;;;4.30;99.90;;;;;;5073398;28;20054;-59
2022/03/20 06:28:43;;;;;;;30.25;19.35;;;;;;;;;;5073432;28;20098;-59
2022/03/20 06:31:13;;;;;;;28.63;19.25;;;4.60;99.90;;;;;;5073653;28;20040;-56
2022/03/20 06:33:39;;;;;;;28.42;19.00;;;5.10;99.90;;;;;;5073642;28;20037;-56
2022/03/20 06:36:06;;;;;;;28.95;18.92;;;;;;;;;;5073409;28;20466;-56
2022/03/20 06:38:33;;;;;;;31.73;19.27;;;4.80;99.90;;;;;;5073306;28;20041;-56
2022/03/20 06:40:59;;;;;;;29.27;18.35;;;5.20;99.90;;;;;;5073279;28;20051;-56
2022/03/20 06:43:25;;;;;;;32.92;19.48;;;;;;;;;;5073181;28;20400;-56
2022/03/20 06:45:55;;;;;;;27.52;18.35;;;;;;;;;;5073336;28;20049;-56
2022/03/20 06:48:21;;;;;;;35.42;19.98;;;5.20;99.90;;;;;;5073398;28;20040;-56
2022/03/20 06:50:47;;;;;;;30.92;18.45;;;4.90;99.90;;;;;;5071956;28;20045;-56
2022/03/20 06:53:13;;;;;;;34.47;18.92;;;4.80;99.90;;;;;;5073129;28;20041;-56
2022/03/20 06:55:39;;;;;;;27.23;18.63;;;4.40;99.90;;;;;;5073216;28;20037;-55
2022/03/20 06:58:05;;;;;;;27.45;18.92;;;;;;;;;;5073010;28;20032;-55
2022/03/20 07:00:31;;;;;;;32.05;19.83;;;4.40;99.90;;;;;;5073005;28;20105;-56
2022/03/20 07:03:00;;;;;;;28.60;19.30;;;4.40;99.90;;;;;;5072997;28;20480;-58
2022/03/20 07:05:26;;;;;;;27.65;19.08;;;4.10;99.90;;;;;;5075546;28;20123;-58
2022/03/20 07:07:54;;;;;;;32.05;19.65;;;4.00;99.90;;;;;;5077267;28;20048;-58
2022/03/20 07:10:24;;;;;;;29.58;19.27;;;4.20;99.90;;;;;;5077154;28;20036;-58
2022/03/20 07:12:50;;;;;;;27.77;19.20;;;4.30;99.90;;;;;;5077365;28;20437;-58
2022/03/20 07:15:18;;;;;;;35.00;19.73;;;4.20;99.90;;;;;;5077450;28;20105;-58
2022/03/20 07:17:48;;;;;;;28.67;19.63;;;4.40;99.90;;;;;;5075634;28;20086;-58
2022/03/20 07:20:16;;;;;;;27.25;19.05;;;4.60;99.90;;;;;;5076963;28;20087;-59
2022/03/20 07:22:42;;;;;;;27.48;19.48;;;4.40;99.90;;;;;;5076966;28;20050;-59
2022/03/20 07:30:39;;;;;;;28.70;19.85;;;4.70;99.90;;;;;;5076736;28;20036;-59
2022/03/20 07:33:05;;;;;;;34.55;19.42;;;;;;;;;;5076664;28;20555;-59
2022/03/20 07:35:31;;;;;;;35.35;19.73;;;;;;;;;;5076507;28;20050;-59
2022/03/20 07:37:56;;;;;;;30.25;20.08;;;4.60;99.90;;;;;;5076869;28;20047;-59
2022/03/20 07:40:22;;;;;;;28.13;19.52;;;4.70;99.90;;;;;;5076617;28;20028;-59
2022/03/20 07:42:48;;;;;;;31.80;19.25;;;4.70;99.90;;;;;;5076716;28;20054;-59
2022/03/20 07:45:13;;;;;;;33.28;20.23;;;4.60;99.90;;;;;;5076628;28;20040;-58
2022/03/20 07:47:39;;;;;;;30.48;19.80;;;4.90;99.90;;;;;;5076486;28;20105;-58
2022/03/20 07:50:08;;;;;;;33.40;20.15;;;4.90;99.90;;;;;;5076286;28;20036;-59
2022/03/20 07:52:35;;;;;;;29.58;19.75;;;5.20;99.90;;;;;;5059094;28;20055;-58
2022/03/20 07:55:01;;;;;;;31.90;19.50;;;4.90;97.00;;;;;;5075015;28;20057;-59
2022/03/20 07:57:29;;;;;;;29.13;19.30;;;;;;;;;;5076153;28;20049;-59
2022/03/20 07:59:56;;;;;;;28.88;19.83;;;4.80;99.90;;;;;;5076257;28;20037;-58
2022/03/20 08:02:23;;;;;;;27.73;19.80;;;;;;;;;;5058328;28;20057;-58
2022/03/20 08:04:51;;;;;;;32.00;20.00;;;5.10;97.30;;;;;;5067312;28;20207;-58
2022/03/20 08:07:19;;;;;;;28.20;20.08;;;5.20;99.90;;;;;;5067348;28;20439;-58
2022/03/20 08:09:45;;;;;;;32.88;20.45;;;4.90;99.90;;;;;;5063412;28;20111;-58
2022/03/20 08:12:11;;;;;;;31.73;20.65;;;;;;;;;;5062697;28;20525;-58
2022/03/20 08:14:39;;;;;;;31.35;19.70;;;5.30;99.90;;;;;;5063343;28;20095;-59
2022/03/20 08:17:07;;;;;;;30.73;20.10;;;5.50;99.90;;;;;;5067198;28;20033;-59
2022/03/20 08:19:33;;;;;;;32.10;20.65;;;5.60;99.90;;;;;;5054936;28;20069;-59
2022/03/20 08:21:59;;;;;;;28.17;19.27;;;5.60;99.30;;;;;;5054907;28;20447;-58
2022/03/20 08:24:25;;;;;;;36.15;20.67;;;5.80;95.40;;;;;;5054626;28;20043;-59
2022/03/20 08:26:51;;;;;;;29.38;20.38;;;6.20;99.90;;;;;;5054893;28;20048;-59
2022/03/20 08:29:17;;;;;;;29.65;19.90;;;6.40;97.30;;;;;;5053346;28;20077;-59
2022/03/20 08:31:45;;;;;;;36.85;20.90;;;6.80;95.10;;;;;;5054512;28;20069;-58
2022/03/20 08:34:13;;;;;;;31.38;20.65;;;7.00;95.60;;;;;;5054902;28;20033;-58
2022/03/20 08:36:39;;;;;;;35.25;20.02;;;;;;;;;;5054529;28;20091;-58
2022/03/20 08:39:05;;;;;;;30.00;20.20;;;7.40;93.90;;;;;;5054620;28;20576;-58
2022/03/20 08:41:33;;;;;;;31.08;20.63;;;;;;;;;;5054272;28;20086;-59
2022/03/20 08:43:59;;;;;;;36.65;20.50;;;7.30;92.80;;;;;;5054580;28;20495;-59
2022/03/20 08:46:24;;;;;;;32.97;20.02;;;7.50;93.40;;;;;;5054624;28;20120;-58
2022/03/20 08:48:50;;;;;;;35.63;20.15;;;7.50;92.10;;;;;;5074653;28;20128;-59
2022/03/20 08:51:16;;;;;;;37.05;21.23;;;7.40;92.00;;;;;;5074538;28;20025;-58
2022/03/20 08:53:41;;;;;;;37.88;20.80;;;7.20;93.30;;;;;;5073252;28;20479;-59
2022/03/20 08:56:07;;;;;;;35.60;21.55;;;;;;;;;;5074688;28;20041;-58
2022/03/20 08:58:33;;;;;;;32.00;20.88;;;7.20;92.70;;;;;;5073986;28;20087;-58
2022/03/20 09:00:59;;;;;;;30.25;20.38;;;7.70;92.40;;;;;;5074418;28;20087;-59
2022/03/20 09:03:25;;;;;;;32.78;20.50;;;7.80;92.40;;;;;;5072576;28;20063;-59
2022/03/20 09:05:51;;;;;;;59.63;21.63;;;;;;;;;;5073995;28;20044;-58
2022/03/20 09:08:17;;;;;;;42.85;21.13;;;;;;;;;;5073970;28;20032;-58
2022/03/20 09:10:43;;;;;;;35.05;21.70;;;7.80;91.20;;;;;;5073913;28;20171;-58
2022/03/20 09:13:09;;;;;;;38.08;21.42;;;;;;;;;;5074079;28;20119;-59
2022/03/20 09:15:35;;;;;;;29.38;21.02;;;;;;;;;;5073951;28;20557;-59
2022/03/20 09:20:46;;;;;;;35.17;21.25;;;7.70;79.70;;;;;;5073991;28;20053;-55
2022/03/20 09:23:12;;;;;;;35.83;21.35;;;8.50;70.00;;;;;;5073843;28;20043;-56
2022/03/20 09:25:39;;;;;;;32.90;22.35;;;8.10;90.80;;;;;;5073432;28;20056;-56
2022/03/20 09:28:08;;;;;;;34.00;21.80;;;8.00;67.80;;;;;;5073064;28;20047;-56
2022/03/20 09:30:35;;;;;;;35.05;22.15;;;9.00;90.20;;;;;;5073269;28;20483;-56
2022/03/20 09:33:02;;;;;;;35.88;21.77;;;8.60;89.90;;;;;;5073763;28;20041;-56
2022/03/20 09:35:28;;;;;;;34.33;21.65;;;;;;;;;;5073660;28;20041;-55
2022/03/20 09:37:54;;;;;;;49.65;22.00;;;;;;;;;;5073410;28;20083;-56
2022/03/20 09:40:22;;;;;;;35.60;22.00;;;;;;;;;;5073606;28;20048;-59
2022/03/20 09:42:48;;;;;;;38.67;22.80;;;8.40;87.80;;;;;;5073684;28;20045;-56
2022/03/20 09:45:17;;;;;;;34.75;22.42;;;8.30;87.70;;;;;;5073521;28;20050;-56
2022/03/20 09:47:43;;;;;;;33.20;21.90;;;8.40;88.40;;;;;;5060011;28;20396;-57
2022/03/20 09:50:10;;;;;;;35.00;22.10;;;8.20;86.00;;;;;;5053517;28;20037;-56
2022/03/20 09:52:37;;;;;;;36.92;21.85;;;7.80;86.50;;;;;;5052912;28;20055;-56
2022/03/20 09:55:04;;;;;;;35.72;21.60;;;8.40;64.70;;;;;;5053008;28;20044;-56
2022/03/20 09:57:31;;;;;;;34.30;22.70;;;;;;;;;;5053037;28;20045;-56
2022/03/20 10:00:04;;;;;;;32.42;22.50;;;8.50;86.70;;;;;;5052971;28;20044;-56
2022/03/20 10:02:30;;;;;;;35.80;23.08;;;;;;;;;;5052641;28;20052;-56
2022/03/20 10:05:04;;;;;;;31.00;21.65;;;8.30;86.50;;;;;;5052886;28;20392;-56
2022/03/20 10:07:33;;;;;;;43.25;23.63;;;8.00;69.90;;;;;;5052526;28;20033;-56
2022/03/20 10:10:06;;;;;;;35.97;22.55;;;8.40;64.20;;;;;;5053196;28;20405;-57
2022/03/20 10:12:32;;;;;;;37.47;23.20;;;7.00;63.40;;;;;;5052435;28;20037;-57
2022/03/20 10:14:58;;;;;;;30.95;23.25;;;8.60;85.50;;;;;;5052842;28;20056;-56
2022/03/20 10:17:24;;;;;;;34.10;22.63;;;8.60;85.40;;;;;;5052484;28;20044;-56
2022/03/20 10:19:50;;;;;;;34.25;23.58;;;8.60;84.50;;;;;;5052739;28;20483;-57
2022/03/20 10:22:17;;;;;;;41.42;22.67;;;;;;;;;;5052456;28;20041;-56
2022/03/20 10:24:51;;;;;;;33.15;22.58;;;8.80;62.70;;;;;;5052566;28;20045;-56
2022/03/20 10:27:17;;;;;;;36.92;22.95;;;;;;;;;;5051253;28;20118;-56
2022/03/20 10:29:51;;;;;;;35.45;23.27;;;9.10;84.30;;;;;;5052284;28;20484;-56
2022/03/20 10:32:18;;;;;;;35.30;22.90;;;;;;;;;;5052928;28;20056;-56
2022/03/20 10:35:01;;;;;;;42.30;23.70;;;9.20;82.70;;;;;;5052148;28;20044;-57
2022/03/20 10:37:51;;;;;;;32.33;22.67;;;9.10;83.50;;;;;;5052355;28;20049;-57
2022/03/20 10:40:20;;;;;;;33.63;22.60;;;9.30;70.20;;;;;;5050435;28;20041;-57
2022/03/20 10:43:10;;;;;;;34.92;22.85;;;9.50;82.90;;;;;;5052241;28;20427;-57
2022/03/20 10:45:54;;;;;;;38.67;23.75;;;9.00;82.60;;;;;;5052217;28;20123;-56
2022/03/20 10:48:39;;;;;;;40.10;23.35;;;9.30;82.00;;;;;;5069290;28;20146;-56
2022/03/20 10:51:07;;;;;;;39.67;23.25;;;9.30;81.60;;;;;;5072494;28;20100;-56
2022/03/20 10:53:33;;;;;;;35.50;23.92;;;8.80;81.00;;;;;;5071839;28;20036;-57
2022/03/20 10:56:07;;;;;;;39.17;22.95;;;9.30;60.00;;;;;;5072260;28;20487;-56
2022/03/20 10:58:40;;;;;;;39.92;23.50;;;9.40;80.30;;;;;;5072374;28;20384;-56
2022/03/20 11:01:08;;;;;;;41.75;24.20;;;9.60;67.00;;;;;;5072104;28;20060;-57
2022/03/20 11:03:36;;;;;;;34.25;23.38;;;9.50;60.40;;;;;;5072001;28;20052;-56
2022/03/20 11:06:06;;;;;;;38.50;24.15;;;9.60;60.90;;;;;;5072143;28;20089;-57
2022/03/20 11:08:32;;;;;;;44.72;26.10;;;;;;;;;;5071721;28;20043;-56
2022/03/20 11:10:59;;;;;;;35.35;24.02;;;9.60;79.50;;;;;;5072225;28;20480;-57
2022/03/20 11:13:27;;;;;;;31.10;22.75;;;9.70;79.70;;;;;;5071801;28;20029;-57
2022/03/20 11:15:56;;;;;;;44.65;24.20;;;9.50;79.70;;;;;;5070856;28;20044;-57
2022/03/20 11:18:25;;;;;;;51.75;25.77;;;9.90;59.00;;;;;;5054031;28;20485;-57
2022/03/20 11:20:52;;;;;;;99.68;25.92;;;10.10;78.40;;;;;;5052302;28;20071;-57
2022/03/20 11:23:19;;;;;;;35.55;23.02;;;9.40;78.20;;;;;;5050451;28;20527;-56
2022/03/20 11:25:47;;;;;;;39.30;23.83;;;10.20;79.70;;;;;;5051825;28;20476;-57
2022/03/20 11:28:14;;;;;;;36.67;23.80;;;10.30;79.30;;;;;;5050812;28;20041;-57
2022/03/20 11:30:41;;;;;;;35.15;24.98;;;10.10;78.50;;;;;;5051721;28;20535;-57
2022/03/20 11:33:09;;;;;;;35.42;23.90;;;9.90;78.50;;;;;;5051859;28;20071;-57
2022/03/20 11:35:36;;;;;;;46.15;24.45;;;10.40;77.40;;;;;;5051701;28;20041;-57
2022/03/20 11:38:22;;;;;;;40.92;24.27;;;10.60;77.40;;;;;;5052020;28;20112;-56
2022/03/20 11:41:09;;;;;;;42.25;23.73;;;10.80;78.00;;;;;;5052009;28;20087;-57
2022/03/20 11:43:41;;;;;;;48.25;25.35;;;10.60;57.50;;;;;;5054296;28;20044;-57
2022/03/20 11:46:13;;;;;;;47.28;24.45;;;10.80;77.30;;;;;;5059920;28;20492;-57
2022/03/20 11:48:39;;;;;;;37.42;23.83;;;10.90;76.20;;;;;;5068238;28;20102;-57
2022/03/20 11:51:05;;;;;;;39.53;24.35;;;;;;;;;;5073984;28;20029;-57
2022/03/20 11:53:31;;;;;;;42.88;24.48;;;11.10;76.70;;;;;;5074981;28;20043;-57
2022/03/20 11:55:57;;;;;;;51.00;24.63;;;10.50;76.30;;;;;;5073074;28;20509;-56
2022/03/20 11:58:34;;;;;;;39.17;24.33;;;10.80;61.40;;;;;;5075020;28;20036;-56
2022/03/20 12:01:06;;;;;;;39.45;23.98;;;11.10;76.10;;;;;;5075254;28;20439;-57
2022/03/20 12:03:38;;;;;;;32.30;22.77;;;10.50;76.30;;;;;;5076325;28;20453;-56
2022/03/20 12:06:41;;;;;;;39.67;23.73;;;10.90;75.40;;;;;;5076262;28;20053;-57
2022/03/20 12:09:36;;;;;;;35.20;24.58;;;11.10;74.70;;;;;;5076082;28;20036;-57
2022/03/20 12:12:32;;;;;;;68.97;26.07;;;11.10;75.60;;;;;;5076190;28;20391;-57
2022/03/20 12:15:03;;;;;;;36.25;23.63;;;11.20;58.10;;;;;;5076215;28;20075;-57
2022/03/20 12:17:57;;;;;;;33.78;24.20;;;11.60;55.90;;;;;;5058071;28;20625;-57
2022/03/20 12:20:48;;;;;;;39.25;23.88;;;12.00;74.40;;;;;;5075879;28;20174;-57
2022/03/20 12:23:38;;;;;;;36.28;24.73;;;11.90;55.40;;;;;;5075267;28;20113;-57
2022/03/20 12:26:37;;;;;;;38.58;24.20;;;11.90;72.70;;;;;;5074551;28;20052;-57
2022/03/20 12:29:32;;;;;;;42.60;24.20;;;11.70;72.50;;;;;;5075204;28;20040;-57
2022/03/20 12:32:02;;;;;;;36.08;25.23;;;11.70;73.80;;;;;;5075404;28;20047;-57
2022/03/20 12:34:29;;;;;;;39.05;24.20;;;11.60;74.30;;;;;;5074902;28;20502;-57
2022/03/20 12:36:55;;;;;;;37.67;23.83;;;11.50;74.00;;;;;;5075726;28;20415;-57
2022/03/20 12:39:54;;;;;;;40.97;24.30;;;11.60;74.90;;;;;;5057965;28;20138;-57
2022/03/20 12:42:23;;;;;;;35.20;23.42;;;11.30;73.70;;;;;;5033136;28;20049;-57
2022/03/20 12:44:52;;;;;;;32.63;24.17;;;12.00;74.00;;;;;;5033356;28;20220;-57
2022/03/20 12:47:19;;;;;;;44.13;24.17;;;11.80;55.40;;;;;;5016950;28;20056;-58
2022/03/20 12:49:55;;;;;;;44.65;24.20;;;11.90;73.40;;;;;;5033360;28;20045;-57
2022/03/20 12:52:24;;;;;;;40.53;24.75;;;12.30;73.10;;;;;;5033289;28;20544;-57
2022/03/20 12:55:00;;;;;;;34.50;23.65;;;11.60;73.60;;;;;;5033215;28;20042;-57
2022/03/20 12:57:43;;;;;;;52.42;24.80;;;12.20;72.50;;;;;;5033265;28;20069;-57
2022/03/20 13:00:16;;;;;;;38.53;24.38;;;11.90;73.60;;;;;;5033237;28;20057;-57
2022/03/20 13:03:00;;;;;;;39.90;24.13;;;12.00;72.90;;;;;;5015431;28;20148;-57
2022/03/20 13:05:27;;;;;;;36.70;25.25;;;11.90;66.90;;;;;;5032964;28;20049;-57
2022/03/20 13:07:54;;;;;;;35.13;24.58;;;12.10;74.00;;;;;;5032993;28;20393;-57
2022/03/20 13:10:25;;;;;;;34.47;24.73;;;11.70;73.30;;;;;;5032997;28;20069;-57
2022/03/20 13:13:03;;;;;;;32.45;24.45;;;12.00;74.20;;;;;;5032834;28;20440;-57
2022/03/20 13:15:32;;;;;;;43.60;24.27;;;11.60;67.50;;;;;;5032894;28;20045;-57
2022/03/20 13:17:58;;;;;;;35.33;24.33;;;11.70;73.20;;;;;;5016857;28;20536;-57
2022/03/20 13:20:30;;;;;;;40.10;25.30;;;11.80;73.70;;;;;;5074824;28;20051;-57
2022/03/20 13:22:57;;;;;;;36.13;24.92;;;11.90;74.20;;;;;;5073566;28;20101;-57
2022/03/20 13:25:25;;;;;;;33.05;24.52;;;12.60;74.50;;;;;;5074564;28;20111;-57